createdAt,value
2019-02-08T00:02:10.920Z,-0.10
2019-02-08T00:04:43.118Z,-0.10
2019-02-08T00:07:14.506Z,-0.20
2019-02-08T00:09:45.456Z,-0.20
2019-02-08T00:12:16.817Z,-0.30
2019-02-08T00:14:47.765Z,-0.30
2019-02-08T00:17:18.626Z,-0.30
2019-02-08T00:19:49.612Z,-0.30
2019-02-08T00:22:20.618Z,-0.30
2019-02-08T00:24:51.706Z,-0.30
2019-02-08T00:27:22.914Z,-0.30
2019-02-08T00:29:54.262Z,-0.30
2019-02-08T00:32:26.121Z,-0.30
2019-02-08T00:34:57.424Z,-0.30
2019-02-08T00:37:28.259Z,-0.30
2019-02-08T00:39:58.976Z,-0.30
2019-02-08T00:42:29.972Z,-0.30
2019-02-08T00:45:01.880Z,-0.30
2019-02-08T00:47:32.538Z,-0.30
2019-02-08T00:50:03.542Z,-0.30
2019-02-08T00:52:34.305Z,-0.30
2019-02-08T00:55:05.814Z,-0.30
2019-02-08T00:57:37.378Z,-0.30
2019-02-08T01:00:10.647Z,-0.30
2019-02-08T01:03:20.748Z,-0.30
2019-02-08T01:05:51.509Z,-0.30
2019-02-08T01:08:23.206Z,-0.30
2019-02-08T01:10:54.155Z,-0.40
2019-02-08T01:13:25.040Z,-0.40
2019-02-08T01:15:55.875Z,-0.40
2019-02-08T01:18:26.959Z,-0.50
2019-02-08T01:20:57.725Z,-0.50
2019-02-08T01:23:28.607Z,-0.50
2019-02-08T01:25:59.309Z,-0.60
2019-02-08T01:28:30.305Z,-0.50
2019-02-08T01:31:01.512Z,-0.50
2019-02-08T01:33:32.491Z,-0.60
2019-02-08T01:36:03.813Z,-0.60
2019-02-08T01:38:34.783Z,-0.60
2019-02-08T01:41:06.017Z,-0.60
2019-02-08T01:43:37.006Z,-0.60
2019-02-08T01:46:08.030Z,-0.60
2019-02-08T01:48:39.045Z,-0.60
2019-02-08T01:51:10.244Z,-0.60
2019-02-08T01:53:48.353Z,-0.60
2019-02-08T01:56:13.716Z,-0.60
2019-02-08T01:58:44.308Z,-0.60
2019-02-08T02:01:15.086Z,-0.60
2019-02-08T02:03:45.936Z,-0.60
2019-02-08T02:06:16.692Z,-0.60
2019-02-08T02:08:47.504Z,-0.60
2019-02-08T02:11:18.284Z,-0.50
2019-02-08T02:13:48.988Z,-0.50
2019-02-08T02:16:19.864Z,-0.60
2019-02-08T02:18:50.835Z,-0.60
2019-02-08T02:21:21.951Z,-0.60
2019-02-08T02:23:56.235Z,-0.60
2019-02-08T02:26:25.176Z,-0.60
2019-02-08T02:28:55.732Z,-0.70
2019-02-08T02:31:26.880Z,-0.70
2019-02-08T02:33:57.760Z,-0.80
2019-02-08T02:36:28.947Z,-0.80
2019-02-08T02:38:59.764Z,-0.70
2019-02-08T02:41:30.709Z,-0.70
2019-02-08T02:44:01.669Z,-0.70
2019-02-08T02:46:32.583Z,-0.70
2019-02-08T02:49:03.294Z,-0.60
2019-02-08T02:51:34.106Z,-0.60
2019-02-08T02:54:05.247Z,-0.60
2019-02-08T02:56:36.228Z,-0.60
2019-02-08T02:59:07.567Z,-0.60
2019-02-08T03:01:38.446Z,-0.60
2019-02-08T03:04:09.321Z,-0.60
2019-02-08T03:06:40.333Z,-0.70
2019-02-08T03:09:11.946Z,-0.70
2019-02-08T03:11:43.219Z,-0.70
2019-02-08T03:14:14.089Z,-0.80
2019-02-08T03:16:44.783Z,-0.80
2019-02-08T03:19:15.584Z,-0.80
2019-02-08T03:21:46.357Z,-0.80
2019-02-08T03:24:17.333Z,-0.80
2019-02-08T03:26:48.045Z,-0.80
2019-02-08T03:29:18.905Z,-0.80
2019-02-08T03:31:49.648Z,-0.80
2019-02-08T03:34:20.718Z,-0.80
2019-02-08T03:36:51.820Z,-0.80
2019-02-08T03:39:22.676Z,-0.80
2019-02-08T03:41:53.395Z,-0.90
2019-02-08T03:44:26.424Z,-0.90
2019-02-08T03:46:57.180Z,-0.90
2019-02-08T03:49:27.819Z,-1.00
2019-02-08T03:51:58.504Z,-1.00
2019-02-08T03:54:29.222Z,-1.00
2019-02-08T03:57:00.172Z,-1.10
2019-02-08T03:59:31.091Z,-1.10
2019-02-08T04:02:02.022Z,-1.20
2019-02-08T04:04:32.946Z,-1.20
2019-02-08T04:07:04.003Z,-1.20
2019-02-08T04:09:35.078Z,-1.20
2019-02-08T04:12:05.928Z,-1.20
2019-02-08T04:14:36.892Z,-1.20
2019-02-08T04:17:07.754Z,-1.20
2019-02-08T04:19:38.607Z,-1.10
2019-02-08T04:22:09.598Z,-1.10
2019-02-08T04:24:40.584Z,-1.00
2019-02-08T04:27:11.506Z,-0.90
2019-02-08T04:29:42.343Z,-0.90
2019-02-08T04:32:13.202Z,-0.80
2019-02-08T04:34:44.232Z,-0.70
2019-02-08T04:37:15.261Z,-0.70
2019-02-08T04:39:46.323Z,-0.60
2019-02-08T04:42:16.799Z,-0.50
2019-02-08T04:44:47.389Z,-0.50
2019-02-08T04:47:18.064Z,-0.40
2019-02-08T04:49:49.412Z,-0.40
2019-02-08T04:52:20.106Z,-0.30
2019-02-08T04:54:50.744Z,-0.30
2019-02-08T04:57:21.969Z,-0.20
2019-02-08T04:59:52.618Z,-0.10
2019-02-08T05:02:23.646Z,-0.10
2019-02-08T05:04:54.525Z,0.00
2019-02-08T05:07:26.324Z,0.00
2019-02-08T05:09:57.274Z,0.00
2019-02-08T05:12:28.066Z,0.00
2019-02-08T05:14:58.703Z,0.00
2019-02-08T05:17:29.612Z,0.00
2019-02-08T05:20:00.527Z,0.10
2019-02-08T05:22:32.169Z,0.10
2019-02-08T05:25:02.980Z,0.10
2019-02-08T05:27:34.093Z,0.10
2019-02-08T05:30:08.211Z,0.20
2019-02-08T05:32:39.014Z,0.20
2019-02-08T05:35:10.021Z,0.20
2019-02-08T05:37:43.015Z,0.20
2019-02-08T05:40:14.161Z,0.20
2019-02-08T05:42:45.137Z,0.30
2019-02-08T05:45:17.096Z,0.30
2019-02-08T05:47:48.048Z,0.30
2019-02-08T05:50:20.946Z,0.30
2019-02-08T05:52:51.914Z,0.30
2019-02-08T05:55:25.641Z,0.30
2019-02-08T05:57:56.453Z,0.40
2019-02-08T06:00:34.847Z,0.40
2019-02-08T06:03:06.272Z,0.40
2019-02-08T06:05:38.632Z,0.40
2019-02-08T06:08:09.923Z,0.40
2019-02-08T06:10:41.104Z,0.40
2019-02-08T06:13:12.138Z,0.40
2019-02-08T06:15:43.260Z,0.40
2019-02-08T06:18:14.443Z,0.50
2019-02-08T06:20:45.342Z,0.60
2019-02-08T06:23:16.103Z,0.60
2019-02-08T06:25:46.736Z,0.70
2019-02-08T06:28:17.284Z,0.70
2019-02-08T06:30:48.209Z,0.80
2019-02-08T06:33:18.752Z,0.80
2019-02-08T06:35:49.967Z,0.90
2019-02-08T06:38:20.881Z,0.90
2019-02-08T06:40:52.646Z,1.00
2019-02-08T06:43:23.416Z,1.00
2019-02-08T06:45:54.493Z,1.10
2019-02-08T06:48:27.314Z,1.10
2019-02-08T06:50:58.150Z,1.10
2019-02-08T06:53:29.596Z,1.20
2019-02-08T06:56:00.815Z,1.20
2019-02-08T06:58:35.929Z,1.20
2019-02-08T07:01:32.577Z,1.30
2019-02-08T07:04:21.539Z,1.40
2019-02-08T07:07:30.046Z,1.50
2019-02-08T07:10:19.723Z,1.50
2019-02-08T07:13:09.235Z,1.50
2019-02-08T07:15:57.759Z,1.60
2019-02-08T07:18:46.159Z,1.70
2019-02-08T07:21:49.206Z,1.80
2019-02-08T07:24:34.557Z,1.80
2019-02-08T07:27:36.757Z,1.90
2019-02-08T07:30:29.055Z,1.90
2019-02-08T07:33:18.943Z,2.00
2019-02-08T07:36:00.945Z,2.00
2019-02-08T07:38:54.267Z,2.10
2019-02-08T07:41:44.860Z,2.20
2019-02-08T07:44:38.334Z,2.20
2019-02-08T07:47:26.692Z,2.30
2019-02-08T07:50:15.846Z,2.40
2019-02-08T07:53:08.112Z,2.50
2019-02-08T07:55:53.980Z,2.50
2019-02-08T07:58:56.250Z,2.60
2019-02-08T08:01:44.584Z,2.60
2019-02-08T08:04:25.215Z,2.70
2019-02-08T08:07:14.234Z,2.80
2019-02-08T08:10:13.296Z,2.80
2019-02-08T08:13:09.268Z,2.90
2019-02-08T08:15:58.675Z,2.90
2019-02-08T08:18:51.511Z,2.90
2019-02-08T08:21:41.766Z,3.00
2019-02-08T08:24:25.363Z,3.00
2019-02-08T08:27:17.739Z,3.10
2019-02-08T08:30:16.353Z,3.10
2019-02-08T08:33:00.205Z,3.10
2019-02-08T08:35:47.395Z,3.20
2019-02-08T08:39:08.779Z,3.20
2019-02-08T08:42:28.640Z,3.30
2019-02-08T08:45:47.309Z,3.30
2019-02-08T08:48:44.703Z,3.40
2019-02-08T08:51:59.395Z,3.40
2019-02-08T08:55:00.931Z,3.40
2019-02-08T08:57:45.281Z,3.40
2019-02-08T09:01:09.057Z,3.40
2019-02-08T09:04:27.142Z,3.40
2019-02-08T09:07:39.768Z,3.50
2019-02-08T09:10:49.879Z,3.50
2019-02-08T09:14:07.428Z,3.60
2019-02-08T09:17:20.218Z,3.60
2019-02-08T09:20:35.462Z,3.60
2019-02-08T09:23:33.552Z,3.70
2019-02-08T09:26:37.954Z,3.70
2019-02-08T09:29:46.760Z,3.80
2019-02-08T09:33:09.664Z,3.90
2019-02-08T09:36:18.690Z,4.10
2019-02-08T09:39:24.026Z,4.20
2019-02-08T09:42:30.534Z,4.30
2019-02-08T09:45:50.744Z,4.40
2019-02-08T09:49:04.799Z,4.50
2019-02-08T09:52:23.027Z,4.50
2019-02-08T09:55:20.371Z,4.50
2019-02-08T09:58:20.099Z,4.50
2019-02-08T10:01:17.733Z,4.50
2019-02-08T10:04:22.440Z,4.50
2019-02-08T10:07:36.323Z,4.50
2019-02-08T10:10:47.560Z,4.50
2019-02-08T10:14:04.641Z,4.60
2019-02-08T10:17:17.067Z,4.70
2019-02-08T10:20:32.379Z,4.80
2019-02-08T10:23:46.180Z,4.90
2019-02-08T10:26:52.374Z,4.90
2019-02-08T10:30:01.082Z,5.00
2019-02-08T10:33:14.687Z,5.10
2019-02-08T10:36:21.712Z,5.10
2019-02-08T10:39:48.442Z,5.20
2019-02-08T10:43:07.872Z,5.10
2019-02-08T10:46:33.720Z,5.00
2019-02-08T10:49:44.008Z,5.00
2019-02-08T10:52:54.340Z,5.10
2019-02-08T10:56:04.426Z,5.10
2019-02-08T10:59:11.904Z,5.20
2019-02-08T11:02:38.866Z,5.30
2019-02-08T11:05:58.988Z,5.40
2019-02-08T11:09:12.822Z,5.50
2019-02-08T11:12:52.052Z,5.40
2019-02-08T11:16:11.780Z,5.50
2019-02-08T11:19:12.277Z,5.50
2019-02-08T11:21:43.299Z,5.70
2019-02-08T11:24:17.465Z,5.70
2019-02-08T11:26:49.004Z,5.80
2019-02-08T11:29:20.101Z,5.80
2019-02-08T11:31:51.047Z,5.90
2019-02-08T11:34:22.105Z,5.90
2019-02-08T11:36:53.157Z,6.00
2019-02-08T11:39:24.112Z,6.10
2019-02-08T11:41:55.405Z,6.20
2019-02-08T11:44:27.099Z,6.30
2019-02-08T11:46:58.029Z,6.30
2019-02-08T11:49:28.818Z,6.30
2019-02-08T11:51:59.479Z,6.30
2019-02-08T11:54:30.236Z,6.40
2019-02-08T11:57:00.878Z,6.30
2019-02-08T11:59:31.814Z,6.40
2019-02-08T12:02:02.850Z,6.40
2019-02-08T12:04:33.808Z,6.30
2019-02-08T12:07:04.704Z,6.30
2019-02-08T12:09:35.332Z,6.40
2019-02-08T12:12:06.116Z,6.40
2019-02-08T12:14:37.282Z,6.40
2019-02-08T12:17:08.118Z,6.40
2019-02-08T12:19:39.294Z,6.40
2019-02-08T12:22:09.934Z,6.40
2019-02-08T12:24:41.058Z,6.30
2019-02-08T12:27:12.977Z,6.40
2019-02-08T12:29:43.741Z,6.40
2019-02-08T12:32:14.942Z,6.40
2019-02-08T12:34:45.922Z,6.40
2019-02-08T12:37:16.771Z,6.30
2019-02-08T12:39:47.469Z,6.40
2019-02-08T12:42:18.159Z,6.40
2019-02-08T12:44:48.746Z,6.40
2019-02-08T12:47:19.756Z,6.50
2019-02-08T12:49:50.568Z,6.50
2019-02-08T12:52:21.589Z,6.50
2019-02-08T12:54:53.102Z,6.60
2019-02-08T12:57:24.820Z,6.60
2019-02-08T12:59:55.572Z,6.60
2019-02-08T13:02:26.395Z,6.60
2019-02-08T13:04:57.507Z,6.60
2019-02-08T13:07:28.030Z,6.60
2019-02-08T13:09:58.907Z,6.70
2019-02-08T13:12:29.813Z,6.70
2019-02-08T13:15:00.706Z,6.70
2019-02-08T13:17:32.026Z,6.80
2019-02-08T13:20:02.541Z,6.80
2019-02-08T13:22:33.298Z,6.80
2019-02-08T13:25:04.123Z,6.80
2019-02-08T13:27:36.056Z,6.80
2019-02-08T13:30:16.808Z,6.80
2019-02-08T13:32:48.252Z,6.80
2019-02-08T13:35:19.567Z,6.80
2019-02-08T13:37:50.936Z,6.80
2019-02-08T13:40:22.577Z,6.70
2019-02-08T13:42:54.877Z,6.70
2019-02-08T13:45:26.590Z,6.70
2019-02-08T13:47:57.559Z,6.70
2019-02-08T13:50:28.942Z,6.80
2019-02-08T13:52:59.867Z,6.80
2019-02-08T13:55:30.855Z,6.90
2019-02-08T13:58:01.732Z,7.10
2019-02-08T14:00:36.901Z,7.00
2019-02-08T14:03:08.309Z,7.00
2019-02-08T14:05:40.009Z,7.00
2019-02-08T14:08:10.901Z,6.90
2019-02-08T14:10:42.388Z,6.90
2019-02-08T14:13:13.686Z,6.80
2019-02-08T14:15:44.397Z,6.70
2019-02-08T14:18:15.383Z,6.70
2019-02-08T14:20:46.358Z,6.70
2019-02-08T14:23:17.120Z,6.70
2019-02-08T14:25:48.302Z,6.60
2019-02-08T14:28:19.033Z,6.60
2019-02-08T14:30:49.780Z,6.50
2019-02-08T14:33:20.366Z,6.50
2019-02-08T14:35:51.330Z,6.50
2019-02-08T14:38:23.384Z,6.40
2019-02-08T14:40:54.236Z,6.40
2019-02-08T14:43:25.100Z,6.40
2019-02-08T14:45:55.655Z,6.40
2019-02-08T14:48:26.447Z,6.30
2019-02-08T14:50:56.937Z,6.30
2019-02-08T14:53:27.873Z,6.20
2019-02-08T14:55:58.652Z,6.20
2019-02-08T14:58:29.632Z,6.20
2019-02-08T15:01:00.423Z,6.20
2019-02-08T15:03:31.343Z,6.10
2019-02-08T15:06:02.309Z,6.00
2019-02-08T15:08:33.290Z,6.00
2019-02-08T15:11:03.807Z,5.90
2019-02-08T15:13:34.964Z,5.90
2019-02-08T15:16:05.949Z,5.80
2019-02-08T15:18:36.749Z,5.70
2019-02-08T15:21:07.439Z,5.60
2019-02-08T15:23:38.390Z,5.60
2019-02-08T15:26:09.218Z,5.50
2019-02-08T15:28:40.286Z,5.50
2019-02-08T15:31:11.082Z,5.40
2019-02-08T15:33:41.869Z,5.30
2019-02-08T15:36:12.488Z,5.30
2019-02-08T15:38:43.259Z,5.20
2019-02-08T15:41:13.745Z,5.10
2019-02-08T15:43:44.682Z,5.10
2019-02-08T15:46:15.663Z,5.00
2019-02-08T15:48:46.681Z,4.90
2019-02-08T15:51:17.892Z,4.90
2019-02-08T15:53:48.655Z,4.80
2019-02-08T15:56:21.254Z,4.80
2019-02-08T15:58:52.634Z,4.70
2019-02-08T16:01:23.587Z,4.70
2019-02-08T16:03:54.379Z,4.60
2019-02-08T16:06:25.120Z,4.50
2019-02-08T16:08:55.998Z,4.50
2019-02-08T16:11:26.662Z,4.40
2019-02-08T16:13:57.669Z,4.40
2019-02-08T16:16:28.142Z,4.40
2019-02-08T16:18:58.945Z,4.30
2019-02-08T16:21:29.958Z,4.30
2019-02-08T16:24:01.051Z,4.30
2019-02-08T16:26:32.957Z,4.30
2019-02-08T16:29:04.367Z,4.20
2019-02-08T16:31:35.060Z,4.20
2019-02-08T16:34:06.382Z,4.10
2019-02-08T16:36:37.607Z,4.00
2019-02-08T16:39:10.578Z,4.00
2019-02-08T16:41:41.937Z,3.90
2019-02-08T16:44:13.038Z,3.90
2019-02-08T16:46:44.030Z,3.80
2019-02-08T16:49:15.053Z,3.80
2019-02-08T16:51:46.081Z,3.70
2019-02-08T16:54:16.815Z,3.70
2019-02-08T16:56:47.604Z,3.60
2019-02-08T16:59:18.678Z,3.60
2019-02-08T17:01:49.803Z,3.50
2019-02-08T17:04:23.744Z,3.50
2019-02-08T17:06:54.775Z,3.40
2019-02-08T17:09:25.788Z,3.40
2019-02-08T17:11:56.620Z,3.30
2019-02-08T17:14:27.298Z,3.30
2019-02-08T17:16:57.804Z,3.30
2019-02-08T17:19:28.559Z,3.20
2019-02-08T17:21:59.206Z,3.20
2019-02-08T17:24:30.078Z,3.10
2019-02-08T17:27:00.789Z,3.20
2019-02-08T17:29:31.738Z,3.10
2019-02-08T17:32:02.641Z,3.10
2019-02-08T17:34:33.969Z,3.10
2019-02-08T17:37:05.124Z,3.00
2019-02-08T17:39:36.251Z,3.10
2019-02-08T17:42:07.612Z,3.00
2019-02-08T17:44:38.661Z,3.00
2019-02-08T17:47:09.718Z,3.00
2019-02-08T17:49:40.804Z,3.00
2019-02-08T17:52:11.762Z,3.00
2019-02-08T17:54:42.916Z,2.90
2019-02-08T17:57:14.087Z,2.90
2019-02-08T17:59:45.070Z,2.90
2019-02-08T18:02:16.212Z,2.90
2019-02-08T18:04:47.083Z,2.80
2019-02-08T18:07:18.396Z,2.80
2019-02-08T18:09:49.314Z,2.70
2019-02-08T18:12:20.170Z,2.70
2019-02-08T18:14:51.005Z,2.70
2019-02-08T18:17:22.868Z,2.60
2019-02-08T18:19:53.851Z,2.60
2019-02-08T18:22:26.204Z,2.60
2019-02-08T18:24:57.317Z,2.60
2019-02-08T18:27:28.149Z,2.60
2019-02-08T18:29:58.993Z,2.50
2019-02-08T18:32:29.798Z,2.60
2019-02-08T18:35:00.531Z,2.50
2019-02-08T18:37:31.581Z,2.40
2019-02-08T18:40:02.437Z,2.40
2019-02-08T18:42:34.569Z,2.40
2019-02-08T18:45:07.029Z,2.20
2019-02-08T18:47:38.207Z,2.20
2019-02-08T18:50:21.741Z,2.10
2019-02-08T18:52:53.023Z,2.10
2019-02-08T18:55:23.954Z,2.00
2019-02-08T18:57:55.362Z,2.00
2019-02-08T19:00:28.510Z,1.90
2019-02-08T19:02:59.838Z,1.80
2019-02-08T19:05:30.970Z,1.80
2019-02-08T19:08:01.853Z,1.70
2019-02-08T19:10:32.828Z,1.70
2019-02-08T19:13:04.981Z,1.60
2019-02-08T19:15:35.933Z,1.60
2019-02-08T19:18:07.705Z,1.60
2019-02-08T19:20:39.070Z,1.60
2019-02-08T19:23:10.537Z,1.60
2019-02-08T19:25:42.747Z,1.50
2019-02-08T19:28:14.455Z,1.50
2019-02-08T19:30:45.789Z,1.40
2019-02-08T19:33:16.739Z,1.40
2019-02-08T19:35:47.612Z,1.30
2019-02-08T19:38:18.504Z,1.30
2019-02-08T19:40:49.514Z,1.30
2019-02-08T19:43:20.326Z,1.30
2019-02-08T19:45:51.907Z,1.30
2019-02-08T19:48:24.627Z,1.30
2019-02-08T19:50:56.489Z,1.40
2019-02-08T19:53:27.548Z,1.30
2019-02-08T19:55:58.375Z,1.30
2019-02-08T19:58:34.687Z,1.30
2019-02-08T20:01:02.191Z,1.30
2019-02-08T20:03:33.406Z,1.20
2019-02-08T20:06:04.600Z,1.20
2019-02-08T20:08:35.516Z,1.20
2019-02-08T20:11:07.168Z,1.20
2019-02-08T20:13:38.008Z,1.20
2019-02-08T20:16:09.332Z,1.20
2019-02-08T20:18:40.442Z,1.10
2019-02-08T20:21:11.587Z,1.10
2019-02-08T20:23:43.337Z,1.10
2019-02-08T20:26:14.600Z,1.10
2019-02-08T20:28:45.634Z,1.10
2019-02-08T20:31:16.614Z,1.00
2019-02-08T20:33:47.597Z,1.10
2019-02-08T20:36:19.537Z,1.00
2019-02-08T20:38:50.159Z,1.00
2019-02-08T20:41:20.899Z,1.00
2019-02-08T20:43:52.255Z,0.90
2019-02-08T20:46:22.928Z,0.90
2019-02-08T20:48:53.636Z,0.90
2019-02-08T20:51:26.447Z,0.80
2019-02-08T20:53:57.213Z,0.80
2019-02-08T20:56:27.956Z,0.80
2019-02-08T20:58:58.698Z,0.80
2019-02-08T21:01:29.482Z,0.80
2019-02-08T21:04:00.248Z,0.70
2019-02-08T21:06:31.219Z,0.70
2019-02-08T21:09:02.170Z,0.80
2019-02-08T21:11:35.360Z,0.80
2019-02-08T21:14:06.370Z,0.80
2019-02-08T21:16:37.279Z,0.80
2019-02-08T21:19:08.287Z,0.90
2019-02-08T21:21:39.608Z,0.90
2019-02-08T21:24:10.445Z,1.00
2019-02-08T21:26:41.178Z,0.90
2019-02-08T21:29:12.135Z,1.00
2019-02-08T21:31:43.288Z,1.00
2019-02-08T21:34:14.247Z,1.00
2019-02-08T21:36:45.430Z,0.90
2019-02-08T21:39:16.007Z,0.90
2019-02-08T21:41:46.890Z,0.90
2019-02-08T21:44:18.253Z,1.00
2019-02-08T21:46:49.076Z,0.90
2019-02-08T21:49:20.625Z,0.90
2019-02-08T21:51:51.311Z,0.90
2019-02-08T21:54:23.045Z,0.80
2019-02-08T21:56:54.060Z,0.60
2019-02-08T21:59:24.969Z,0.50
2019-02-08T22:01:55.728Z,0.40
2019-02-08T22:04:26.872Z,0.30
2019-02-08T22:06:57.567Z,0.20
2019-02-08T22:09:28.735Z,0.20
2019-02-08T22:12:00.334Z,0.20
2019-02-08T22:14:31.354Z,0.20
2019-02-08T22:17:02.445Z,0.20
2019-02-08T22:19:33.585Z,0.20
2019-02-08T22:22:04.984Z,0.10
2019-02-08T22:24:36.118Z,0.00
2019-02-08T22:27:07.263Z,0.00
2019-02-08T22:29:38.372Z,0.10
2019-02-08T22:32:09.246Z,0.10
2019-02-08T22:34:40.771Z,0.20
2019-02-08T22:37:12.651Z,0.20
2019-02-08T22:39:45.321Z,0.30
2019-02-08T22:42:17.123Z,0.30
2019-02-08T22:44:47.852Z,0.40
2019-02-08T22:47:19.041Z,0.40
2019-02-08T22:49:49.978Z,0.50
2019-02-08T22:52:21.111Z,0.40
2019-02-08T22:54:54.739Z,0.40
2019-02-08T22:57:25.570Z,0.40
2019-02-08T22:59:56.235Z,0.30
2019-02-08T23:02:27.102Z,0.20
2019-02-08T23:04:58.062Z,0.20
2019-02-08T23:07:28.774Z,0.10
2019-02-08T23:09:59.610Z,0.10
2019-02-08T23:12:30.817Z,0.00
2019-02-08T23:15:03.641Z,0.00
2019-02-08T23:17:37.157Z,0.00
2019-02-08T23:20:09.579Z,0.00
2019-02-08T23:22:40.530Z,0.00
2019-02-08T23:25:11.643Z,0.00
2019-02-08T23:27:43.043Z,0.00
2019-02-08T23:30:14.496Z,0.00
2019-02-08T23:32:45.570Z,-0.10
2019-02-08T23:35:16.665Z,-0.10
2019-02-08T23:37:47.487Z,-0.10
2019-02-08T23:40:18.890Z,-0.20
2019-02-08T23:42:49.740Z,-0.20
2019-02-08T23:45:20.882Z,-0.20
2019-02-08T23:47:51.888Z,-0.20
2019-02-08T23:50:22.700Z,-0.20
2019-02-08T23:52:54.212Z,-0.20
2019-02-08T23:55:25.328Z,-0.30
2019-02-08T23:57:56.409Z,-0.20
